sensor_id;sensor_type;location;lat;lon;timestamp;pressure;altitude;pressure_sealevel;temperature;humidity
60373;BME280;46216;52.220;5.134;2022-11-03T00:01:33;101465.53;;;12.63;100.00
60373;BME280;46216;52.220;5.134;2022-11-03T00:04:00;101464.03;;;12.59;100.00
60373;BME280;46216;52.220;5.134;2022-11-03T00:06:25;101472.19;;;12.57;100.00
60373;BME280;46216;52.220;5.134;2022-11-03T00:08:50;101458.81;;;12.57;100.00
60373;BME280;46216;52.220;5.134;2022-11-03T00:11:15;101448.22;;;12.55;100.00
60373;BME280;46216;52.220;5.134;2022-11-03T00:13:43;101448.34;;;12.54;100.00
60373;BME280;46216;52.220;5.134;2022-11-03T00:16:10;101444.91;;;12.52;100.00
60373;BME280;46216;52.220;5.134;2022-11-03T00:18:37;101429.84;;;12.51;100.00
60373;BME280;46216;52.220;5.134;2022-11-03T00:21:05;101439.91;;;12.47;100.00
60373;BME280;46216;52.220;5.134;2022-11-03T00:23:33;101439.78;;;12.49;100.00
60373;BME280;46216;52.220;5.134;2022-11-03T00:26:25;101428.56;;;12.44;100.00
60373;BME280;46216;52.220;5.134;2022-11-03T00:28:52;101423.94;;;12.46;100.00
60373;BME280;46216;52.220;5.134;2022-11-03T00:31:38;101426.84;;;12.43;100.00
60373;BME280;46216;52.220;5.134;2022-11-03T00:34:04;101427.94;;;12.40;100.00
60373;BME280;46216;52.220;5.134;2022-11-03T00:36:36;101419.16;;;12.38;100.00
60373;BME280;46216;52.220;5.134;2022-11-03T00:39:02;101421.06;;;12.36;100.00
60373;BME280;46216;52.220;5.134;2022-11-03T00:41:28;101426.41;;;12.36;100.00
60373;BME280;46216;52.220;5.134;2022-11-03T00:43:54;101419.28;;;12.37;100.00
60373;BME280;46216;52.220;5.134;2022-11-03T00:46:21;101422.91;;;12.36;100.00
60373;BME280;46216;52.220;5.134;2022-11-03T00:48:47;101410.84;;;12.30;100.00
60373;BME280;46216;52.220;5.134;2022-11-03T00:51:13;101426.00;;;12.29;100.00
60373;BME280;46216;52.220;5.134;2022-11-03T00:56:07;101424.41;;;12.27;100.00
60373;BME280;46216;52.220;5.134;2022-11-03T00:58:33;101415.75;;;12.23;100.00
60373;BME280;46216;52.220;5.134;2022-11-03T01:01:01;101409.56;;;12.23;100.00
60373;BME280;46216;52.220;5.134;2022-11-03T01:03:26;101412.00;;;12.26;100.00
60373;BME280;46216;52.220;5.134;2022-11-03T01:05:52;101404.22;;;12.23;100.00
60373;BME280;46216;52.220;5.134;2022-11-03T01:08:36;101398.00;;;12.22;100.00
60373;BME280;46216;52.220;5.134;2022-11-03T01:13:49;101390.09;;;12.21;100.00
60373;BME280;46216;52.220;5.134;2022-11-03T01:16:15;101407.75;;;12.23;100.00
60373;BME280;46216;52.220;5.134;2022-11-03T01:18:40;101401.44;;;12.24;100.00
60373;BME280;46216;52.220;5.134;2022-11-03T01:21:05;101387.94;;;12.26;100.00
60373;BME280;46216;52.220;5.134;2022-11-03T01:23:33;101392.66;;;12.22;100.00
60373;BME280;46216;52.220;5.134;2022-11-03T01:26:03;101385.19;;;12.27;100.00
60373;BME280;46216;52.220;5.134;2022-11-03T01:28:29;101393.41;;;12.24;100.00
60373;BME280;46216;52.220;5.134;2022-11-03T01:30:54;101387.94;;;12.26;100.00
60373;BME280;46216;52.220;5.134;2022-11-03T01:33:19;101388.81;;;12.26;100.00
60373;BME280;46216;52.220;5.134;2022-11-03T01:35:45;101373.63;;;12.27;100.00
60373;BME280;46216;52.220;5.134;2022-11-03T01:38:10;101380.03;;;12.24;100.00
60373;BME280;46216;52.220;5.134;2022-11-03T01:40:35;101371.06;;;12.25;100.00
60373;BME280;46216;52.220;5.134;2022-11-03T01:43:20;101366.91;;;12.21;100.00
60373;BME280;46216;52.220;5.134;2022-11-03T01:45:50;101367.88;;;12.20;100.00
60373;BME280;46216;52.220;5.134;2022-11-03T01:48:19;101366.16;;;12.19;100.00
60373;BME280;46216;52.220;5.134;2022-11-03T01:50:46;101359.94;;;12.19;100.00
60373;BME280;46216;52.220;5.134;2022-11-03T01:53:12;101367.25;;;12.17;100.00
60373;BME280;46216;52.220;5.134;2022-11-03T01:55:39;101355.69;;;12.16;100.00
60373;BME280;46216;52.220;5.134;2022-11-03T01:58:12;101358.59;;;12.13;100.00
60373;BME280;46216;52.220;5.134;2022-11-03T02:00:45;101351.63;;;12.11;100.00
60373;BME280;46216;52.220;5.134;2022-11-03T02:03:11;101356.97;;;12.11;100.00
60373;BME280;46216;52.220;5.134;2022-11-03T02:05:37;101342.56;;;12.13;100.00
60373;BME280;46216;52.220;5.134;2022-11-03T02:08:20;101340.31;;;12.07;100.00
60373;BME280;46216;52.220;5.134;2022-11-03T02:10:47;101341.78;;;12.11;100.00
60373;BME280;46216;52.220;5.134;2022-11-03T02:13:19;101333.91;;;12.10;100.00
60373;BME280;46216;52.220;5.134;2022-11-03T02:15:46;101338.38;;;12.09;100.00
60373;BME280;46216;52.220;5.134;2022-11-03T02:18:15;101326.84;;;12.08;100.00
60373;BME280;46216;52.220;5.134;2022-11-03T02:20:42;101331.13;;;12.11;100.00
60373;BME280;46216;52.220;5.134;2022-11-03T02:23:31;101325.78;;;12.11;100.00
60373;BME280;46216;52.220;5.134;2022-11-03T02:26:01;101329.91;;;12.15;100.00
60373;BME280;46216;52.220;5.134;2022-11-03T02:28:28;101323.84;;;12.13;100.00
60373;BME280;46216;52.220;5.134;2022-11-03T02:33:46;101312.41;;;12.11;100.00
60373;BME280;46216;52.220;5.134;2022-11-03T02:36:30;101316.91;;;12.11;100.00
60373;BME280;46216;52.220;5.134;2022-11-03T02:39:04;101304.94;;;12.16;100.00
60373;BME280;46216;52.220;5.134;2022-11-03T02:41:32;101297.56;;;12.20;100.00
60373;BME280;46216;52.220;5.134;2022-11-03T02:43:59;101290.88;;;12.25;100.00
60373;BME280;46216;52.220;5.134;2022-11-03T02:46:26;101281.16;;;12.24;100.00
60373;BME280;46216;52.220;5.134;2022-11-03T02:48:53;101283.63;;;12.27;100.00
60373;BME280;46216;52.220;5.134;2022-11-03T02:51:22;101276.59;;;12.26;100.00
60373;BME280;46216;52.220;5.134;2022-11-03T02:54:11;101269.41;;;12.27;100.00
60373;BME280;46216;52.220;5.134;2022-11-03T02:56:43;101251.19;;;12.32;100.00
60373;BME280;46216;52.220;5.134;2022-11-03T02:59:14;101262.88;;;12.31;100.00
60373;BME280;46216;52.220;5.134;2022-11-03T03:01:50;101259.34;;;12.30;100.00
60373;BME280;46216;52.220;5.134;2022-11-03T03:04:38;101254.50;;;12.36;100.00
60373;BME280;46216;52.220;5.134;2022-11-03T03:07:14;101249.16;;;12.36;100.00
60373;BME280;46216;52.220;5.134;2022-11-03T03:09:55;101246.16;;;12.40;100.00
60373;BME280;46216;52.220;5.134;2022-11-03T03:12:22;101247.00;;;12.41;100.00
60373;BME280;46216;52.220;5.134;2022-11-03T03:14:50;101241.53;;;12.42;100.00
60373;BME280;46216;52.220;5.134;2022-11-03T03:17:48;101240.19;;;12.37;100.00
60373;BME280;46216;52.220;5.134;2022-11-03T03:20:22;101231.91;;;12.40;100.00
60373;BME280;46216;52.220;5.134;2022-11-03T03:22:55;101226.25;;;12.44;100.00
60373;BME280;46216;52.220;5.134;2022-11-03T03:25:23;101218.34;;;12.43;100.00
60373;BME280;46216;52.220;5.134;2022-11-03T03:27:56;101219.09;;;12.45;100.00
60373;BME280;46216;52.220;5.134;2022-11-03T03:30:22;101220.28;;;12.41;100.00
60373;BME280;46216;52.220;5.134;2022-11-03T03:32:48;101228.81;;;12.46;100.00
60373;BME280;46216;52.220;5.134;2022-11-03T03:35:21;101212.75;;;12.46;100.00
60373;BME280;46216;52.220;5.134;2022-11-03T03:37:54;101211.81;;;12.47;100.00
60373;BME280;46216;52.220;5.134;2022-11-03T03:40:27;101214.25;;;12.50;100.00
60373;BME280;46216;52.220;5.134;2022-11-03T03:42:56;101196.50;;;12.49;100.00
60373;BME280;46216;52.220;5.134;2022-11-03T03:45:23;101199.91;;;12.51;100.00
60373;BME280;46216;52.220;5.134;2022-11-03T03:47:50;101186.41;;;12.52;100.00
60373;BME280;46216;52.220;5.134;2022-11-03T03:50:16;101189.22;;;12.51;100.00
60373;BME280;46216;52.220;5.134;2022-11-03T03:52:42;101191.06;;;12.50;100.00
60373;BME280;46216;52.220;5.134;2022-11-03T03:55:15;101186.66;;;12.49;100.00
60373;BME280;46216;52.220;5.134;2022-11-03T03:57:42;101177.78;;;12.49;100.00
60373;BME280;46216;52.220;5.134;2022-11-03T04:00:13;101186.03;;;12.46;100.00
60373;BME280;46216;52.220;5.134;2022-11-03T04:02:40;101197.97;;;12.53;100.00
60373;BME280;46216;52.220;5.134;2022-11-03T04:05:05;101192.63;;;12.53;100.00
60373;BME280;46216;52.220;5.134;2022-11-03T04:07:31;101187.03;;;12.56;100.00
60373;BME280;46216;52.220;5.134;2022-11-03T04:10:11;101179.78;;;12.58;100.00
60373;BME280;46216;52.220;5.134;2022-11-03T04:12:39;101185.97;;;12.59;100.00
60373;BME280;46216;52.220;5.134;2022-11-03T04:15:23;101183.19;;;12.60;100.00
60373;BME280;46216;52.220;5.134;2022-11-03T04:18:07;101172.25;;;12.63;100.00
60373;BME280;46216;52.220;5.134;2022-11-03T04:20:52;101165.72;;;12.67;100.00
60373;BME280;46216;52.220;5.134;2022-11-03T04:23:36;101169.47;;;12.65;100.00
60373;BME280;46216;52.220;5.134;2022-11-03T04:26:03;101172.63;;;12.70;100.00
60373;BME280;46216;52.220;5.134;2022-11-03T04:28:30;101161.94;;;12.70;100.00
60373;BME280;46216;52.220;5.134;2022-11-03T04:30:57;101163.53;;;12.72;100.00
60373;BME280;46216;52.220;5.134;2022-11-03T04:33:23;101157.19;;;12.73;100.00
60373;BME280;46216;52.220;5.134;2022-11-03T04:35:49;101155.50;;;12.72;100.00
60373;BME280;46216;52.220;5.134;2022-11-03T04:40:43;101149.91;;;12.75;100.00
60373;BME280;46216;52.220;5.134;2022-11-03T04:43:11;101153.34;;;12.77;100.00
60373;BME280;46216;52.220;5.134;2022-11-03T04:45:37;101157.56;;;12.80;100.00
60373;BME280;46216;52.220;5.134;2022-11-03T04:48:11;101149.78;;;12.77;100.00
60373;BME280;46216;52.220;5.134;2022-11-03T04:50:38;101150.75;;;12.76;100.00
60373;BME280;46216;52.220;5.134;2022-11-03T04:53:08;101148.09;;;12.76;100.00
60373;BME280;46216;52.220;5.134;2022-11-03T04:55:39;101149.69;;;12.78;100.00
60373;BME280;46216;52.220;5.134;2022-11-03T04:58:13;101142.75;;;12.76;100.00
60373;BME280;46216;52.220;5.134;2022-11-03T05:00:40;101141.91;;;12.75;100.00
60373;BME280;46216;52.220;5.134;2022-11-03T05:03:13;101143.97;;;12.72;100.00
60373;BME280;46216;52.220;5.134;2022-11-03T05:05:39;101137.41;;;12.76;100.00
60373;BME280;46216;52.220;5.134;2022-11-03T05:08:07;101123.41;;;12.72;100.00
60373;BME280;46216;52.220;5.134;2022-11-03T05:10:33;101132.41;;;12.71;100.00
60373;BME280;46216;52.220;5.134;2022-11-03T05:12:59;101142.25;;;12.71;100.00
60373;BME280;46216;52.220;5.134;2022-11-03T05:15:33;101124.38;;;12.71;100.00
60373;BME280;46216;52.220;5.134;2022-11-03T05:18:00;101117.81;;;12.75;100.00
60373;BME280;46216;52.220;5.134;2022-11-03T05:22:55;101112.34;;;12.77;100.00
60373;BME280;46216;52.220;5.134;2022-11-03T05:27:53;101106.03;;;12.78;100.00
60373;BME280;46216;52.220;5.134;2022-11-03T05:30:19;101110.31;;;12.81;100.00
60373;BME280;46216;52.220;5.134;2022-11-03T05:32:44;101093.28;;;12.82;100.00
60373;BME280;46216;52.220;5.134;2022-11-03T05:35:21;101090.00;;;12.78;100.00
60373;BME280;46216;52.220;5.134;2022-11-03T05:37:47;101081.00;;;12.79;100.00
60373;BME280;46216;52.220;5.134;2022-11-03T05:40:24;101079.16;;;12.79;100.00
60373;BME280;46216;52.220;5.134;2022-11-03T05:42:53;101084.03;;;12.86;100.00
60373;BME280;46216;52.220;5.134;2022-11-03T05:45:34;101080.38;;;12.87;100.00
60373;BME280;46216;52.220;5.134;2022-11-03T05:48:01;101083.06;;;12.87;100.00
60373;BME280;46216;52.220;5.134;2022-11-03T05:50:28;101081.38;;;12.86;100.00
60373;BME280;46216;52.220;5.134;2022-11-03T05:55:45;101068.50;;;12.91;100.00
60373;BME280;46216;52.220;5.134;2022-11-03T05:58:18;101065.94;;;12.89;100.00
60373;BME280;46216;52.220;5.134;2022-11-03T06:00:46;101066.53;;;12.93;100.00
60373;BME280;46216;52.220;5.134;2022-11-03T06:03:33;101068.00;;;12.86;100.00
60373;BME280;46216;52.220;5.134;2022-11-03T06:06:00;101062.63;;;12.97;100.00
60373;BME280;46216;52.220;5.134;2022-11-03T06:08:32;101062.88;;;12.94;100.00
60373;BME280;46216;52.220;5.134;2022-11-03T06:10:59;101052.78;;;12.97;100.00
60373;BME280;46216;52.220;5.134;2022-11-03T06:13:30;101048.31;;;12.98;100.00
60373;BME280;46216;52.220;5.134;2022-11-03T06:16:00;101036.63;;;12.99;100.00
60373;BME280;46216;52.220;5.134;2022-11-03T06:18:30;101051.69;;;13.00;100.00
60373;BME280;46216;52.220;5.134;2022-11-03T06:21:08;101046.59;;;12.97;100.00
60373;BME280;46216;52.220;5.134;2022-11-03T06:23:36;101043.31;;;13.05;100.00
60373;BME280;46216;52.220;5.134;2022-11-03T06:26:02;101039.06;;;13.02;100.00
60373;BME280;46216;52.220;5.134;2022-11-03T06:28:33;101026.66;;;13.01;100.00
60373;BME280;46216;52.220;5.134;2022-11-03T06:30:59;101030.06;;;13.03;100.00
60373;BME280;46216;52.220;5.134;2022-11-03T06:33:26;101027.28;;;13.05;100.00
60373;BME280;46216;52.220;5.134;2022-11-03T06:36:01;101029.22;;;13.02;100.00
60373;BME280;46216;52.220;5.134;2022-11-03T06:38:29;101017.16;;;13.08;100.00
60373;BME280;46216;52.220;5.134;2022-11-03T06:40:56;101019.94;;;13.07;100.00
60373;BME280;46216;52.220;5.134;2022-11-03T06:43:24;101017.41;;;13.05;100.00
60373;BME280;46216;52.220;5.134;2022-11-03T06:45:54;101016.44;;;13.06;100.00
60373;BME280;46216;52.220;5.134;2022-11-03T06:48:22;101023.47;;;13.07;100.00
60373;BME280;46216;52.220;5.134;2022-11-03T06:50:49;101012.66;;;13.09;100.00
60373;BME280;46216;52.220;5.134;2022-11-03T06:53:20;101009.16;;;13.08;100.00
60373;BME280;46216;52.220;5.134;2022-11-03T06:55:47;101007.06;;;13.12;100.00
60373;BME280;46216;52.220;5.134;2022-11-03T06:58:31;101000.88;;;13.11;100.00
60373;BME280;46216;52.220;5.134;2022-11-03T07:00:59;101012.19;;;13.15;100.00
60373;BME280;46216;52.220;5.134;2022-11-03T07:03:30;101008.63;;;13.14;100.00
60373;BME280;46216;52.220;5.134;2022-11-03T07:05:59;101004.00;;;13.16;100.00
60373;BME280;46216;52.220;5.134;2022-11-03T07:08:49;101005.25;;;13.12;100.00
60373;BME280;46216;52.220;5.134;2022-11-03T07:11:19;101006.81;;;13.15;100.00
60373;BME280;46216;52.220;5.134;2022-11-03T07:13:51;101000.09;;;13.20;100.00
60373;BME280;46216;52.220;5.134;2022-11-03T07:16:39;101007.44;;;13.18;100.00
60373;BME280;46216;52.220;5.134;2022-11-03T07:19:12;101001.69;;;13.23;100.00
60373;BME280;46216;52.220;5.134;2022-11-03T07:22:19;101001.69;;;13.23;100.00
60373;BME280;46216;52.220;5.134;2022-11-03T07:24:46;100992.34;;;13.29;100.00
60373;BME280;46216;52.220;5.134;2022-11-03T07:27:13;100994.88;;;13.30;100.00
60373;BME280;46216;52.220;5.134;2022-11-03T07:29:42;100993.06;;;13.31;100.00
60373;BME280;46216;52.220;5.134;2022-11-03T07:32:28;100999.41;;;13.30;100.00
60373;BME280;46216;52.220;5.134;2022-11-03T07:37:51;101004.25;;;13.36;100.00
60373;BME280;46216;52.220;5.134;2022-11-03T07:40:22;100995.00;;;13.40;100.00
60373;BME280;46216;52.220;5.134;2022-11-03T07:42:48;100987.41;;;13.45;100.00
60373;BME280;46216;52.220;5.134;2022-11-03T07:48:00;100995.44;;;13.45;100.00
60373;BME280;46216;52.220;5.134;2022-11-03T07:50:27;100993.66;;;13.45;100.00
60373;BME280;46216;52.220;5.134;2022-11-03T07:52:52;101002.97;;;13.51;100.00
60373;BME280;46216;52.220;5.134;2022-11-03T07:55:18;101002.03;;;13.52;100.00
60373;BME280;46216;52.220;5.134;2022-11-03T07:57:43;100984.13;;;13.53;100.00
60373;BME280;46216;52.220;5.134;2022-11-03T08:00:11;100989.34;;;13.54;100.00
60373;BME280;46216;52.220;5.134;2022-11-03T08:02:51;100976.78;;;13.55;100.00
60373;BME280;46216;52.220;5.134;2022-11-03T08:05:19;100979.13;;;13.59;100.00
60373;BME280;46216;52.220;5.134;2022-11-03T08:07:44;100972.03;;;13.58;100.00
60373;BME280;46216;52.220;5.134;2022-11-03T08:10:09;100982.75;;;13.58;100.00
60373;BME280;46216;52.220;5.134;2022-11-03T08:12:35;100975.44;;;13.60;100.00
60373;BME280;46216;52.220;5.134;2022-11-03T08:15:00;100964.34;;;13.65;100.00
60373;BME280;46216;52.220;5.134;2022-11-03T08:17:25;100967.88;;;13.65;100.00
60373;BME280;46216;52.220;5.134;2022-11-03T08:19:51;100964.34;;;13.65;100.00
60373;BME280;46216;52.220;5.134;2022-11-03T08:22:16;100964.94;;;13.68;100.00
60373;BME280;46216;52.220;5.134;2022-11-03T08:24:41;100960.31;;;13.70;100.00
60373;BME280;46216;52.220;5.134;2022-11-03T08:27:07;100959.06;;;13.75;100.00
60373;BME280;46216;52.220;5.134;2022-11-03T08:29:32;100952.63;;;13.77;100.00
60373;BME280;46216;52.220;5.134;2022-11-03T08:31:58;100943.72;;;13.77;100.00
60373;BME280;46216;52.220;5.134;2022-11-03T08:34:24;100927.16;;;13.83;100.00
60373;BME280;46216;52.220;5.134;2022-11-03T08:36:49;100928.84;;;13.84;100.00
60373;BME280;46216;52.220;5.134;2022-11-03T08:39:14;100923.22;;;13.87;100.00
60373;BME280;46216;52.220;5.134;2022-11-03T08:41:39;100910.41;;;13.90;100.00
60373;BME280;46216;52.220;5.134;2022-11-03T08:44:05;100918.03;;;13.95;100.00
60373;BME280;46216;52.220;5.134;2022-11-03T08:46:30;100902.69;;;13.97;100.00
60373;BME280;46216;52.220;5.134;2022-11-03T08:48:56;100905.56;;;14.05;100.00
60373;BME280;46216;52.220;5.134;2022-11-03T08:51:22;100898.34;;;14.06;100.00
60373;BME280;46216;52.220;5.134;2022-11-03T08:53:47;100890.19;;;14.07;100.00
60373;BME280;46216;52.220;5.134;2022-11-03T08:56:18;100897.97;;;14.10;100.00
60373;BME280;46216;52.220;5.134;2022-11-03T08:58:44;100896.00;;;14.12;100.00
60373;BME280;46216;52.220;5.134;2022-11-03T09:01:10;100885.00;;;14.15;100.00
60373;BME280;46216;52.220;5.134;2022-11-03T09:03:35;100876.72;;;14.18;100.00
60373;BME280;46216;52.220;5.134;2022-11-03T09:06:01;100878.13;;;14.23;100.00
60373;BME280;46216;52.220;5.134;2022-11-03T09:08:26;100864.34;;;14.27;100.00
60373;BME280;46216;52.220;5.134;2022-11-03T09:10:51;100868.84;;;14.27;100.00
60373;BME280;46216;52.220;5.134;2022-11-03T09:13:17;100854.88;;;14.33;100.00
60373;BME280;46216;52.220;5.134;2022-11-03T09:15:43;100838.53;;;14.36;100.00
60373;BME280;46216;52.220;5.134;2022-11-03T09:18:08;100835.59;;;14.39;100.00
60373;BME280;46216;52.220;5.134;2022-11-03T09:20:34;100832.63;;;14.42;100.00
60373;BME280;46216;52.220;5.134;2022-11-03T09:22:59;100830.69;;;14.44;100.00
60373;BME280;46216;52.220;5.134;2022-11-03T09:25:24;100824.16;;;14.47;100.00
60373;BME280;46216;52.220;5.134;2022-11-03T09:27:50;100817.59;;;14.51;100.00
60373;BME280;46216;52.220;5.134;2022-11-03T09:30:15;100805.03;;;14.51;100.00
60373;BME280;46216;52.220;5.134;2022-11-03T09:32:41;100790.63;;;14.52;100.00
60373;BME280;46216;52.220;5.134;2022-11-03T09:35:07;100797.00;;;14.51;100.00
60373;BME280;46216;52.220;5.134;2022-11-03T09:37:33;100790.63;;;14.52;100.00
60373;BME280;46216;52.220;5.134;2022-11-03T09:39:59;100784.44;;;14.52;100.00
60373;BME280;46216;52.220;5.134;2022-11-03T09:42:24;100786.97;;;14.53;100.00
60373;BME280;46216;52.220;5.134;2022-11-03T09:44:52;100775.38;;;14.53;100.00
60373;BME280;46216;52.220;5.134;2022-11-03T09:47:22;100769.91;;;14.54;100.00
60373;BME280;46216;52.220;5.134;2022-11-03T09:49:48;100767.22;;;14.54;100.00
60373;BME280;46216;52.220;5.134;2022-11-03T09:52:18;100766.94;;;14.57;100.00
60373;BME280;46216;52.220;5.134;2022-11-03T09:54:44;100753.94;;;14.62;100.00
60373;BME280;46216;52.220;5.134;2022-11-03T09:57:14;100750.56;;;14.60;100.00
60373;BME280;46216;52.220;5.134;2022-11-03T09:59:43;100747.75;;;14.62;100.00
60373;BME280;46216;52.220;5.134;2022-11-03T10:02:19;100742.38;;;14.62;100.00
60373;BME280;46216;52.220;5.134;2022-11-03T10:04:46;100728.53;;;14.66;100.00
60373;BME280;46216;52.220;5.134;2022-11-03T10:07:11;100735.63;;;14.68;100.00
60373;BME280;46216;52.220;5.134;2022-11-03T10:09:40;100722.78;;;14.71;100.00
60373;BME280;46216;52.220;5.134;2022-11-03T10:12:08;100721.91;;;14.71;100.00
60373;BME280;46216;52.220;5.134;2022-11-03T10:14:33;100723.34;;;14.75;100.00
60373;BME280;46216;52.220;5.134;2022-11-03T10:16:59;100719.81;;;14.74;100.00
60373;BME280;46216;52.220;5.134;2022-11-03T10:19:25;100716.97;;;14.76;100.00
60373;BME280;46216;52.220;5.134;2022-11-03T10:21:51;100712.59;;;14.75;100.00
60373;BME280;46216;52.220;5.134;2022-11-03T10:24:16;100705.41;;;14.75;100.00
60373;BME280;46216;52.220;5.134;2022-11-03T10:26:50;100697.47;;;14.74;100.00
60373;BME280;46216;52.220;5.134;2022-11-03T10:29:18;100700.59;;;14.79;100.00
60373;BME280;46216;52.220;5.134;2022-11-03T10:31:45;100685.34;;;14.79;100.00
60373;BME280;46216;52.220;5.134;2022-11-03T10:36:49;100682.50;;;14.81;100.00
60373;BME280;46216;52.220;5.134;2022-11-03T10:39:29;100684.22;;;14.82;100.00
60373;BME280;46216;52.220;5.134;2022-11-03T10:41:58;100681.94;;;14.87;100.00
60373;BME280;46216;52.220;5.134;2022-11-03T10:44:26;100658.22;;;14.92;100.00
60373;BME280;46216;52.220;5.134;2022-11-03T10:46:56;100658.91;;;14.94;100.00
60373;BME280;46216;52.220;5.134;2022-11-03T10:49:22;100646.91;;;14.98;100.00
60373;BME280;46216;52.220;5.134;2022-11-03T10:51:51;100651.97;;;15.01;100.00
60373;BME280;46216;52.220;5.134;2022-11-03T10:54:18;100634.19;;;15.00;100.00
60373;BME280;46216;52.220;5.134;2022-11-03T10:56:45;100641.94;;;15.03;100.00
60373;BME280;46216;52.220;5.134;2022-11-03T10:59:19;100627.38;;;15.06;100.00
60373;BME280;46216;52.220;5.134;2022-11-03T11:01:45;100619.19;;;15.07;100.00
60373;BME280;46216;52.220;5.134;2022-11-03T11:04:18;100613.13;;;15.05;100.00
60373;BME280;46216;52.220;5.134;2022-11-03T11:06:45;100613.53;;;15.10;100.00
60373;BME280;46216;52.220;5.134;2022-11-03T11:09:12;100598.25;;;15.11;100.00
60373;BME280;46216;52.220;5.134;2022-11-03T11:11:38;100592.31;;;15.17;100.00
60373;BME280;46216;52.220;5.134;2022-11-03T11:14:34;100591.75;;;15.13;100.00
60373;BME280;46216;52.220;5.134;2022-11-03T11:17:01;100595.53;;;15.21;100.00
60373;BME280;46216;52.220;5.134;2022-11-03T11:19:28;100596.25;;;15.23;100.00
60373;BME280;46216;52.220;5.134;2022-11-03T11:37:48;100565.94;;;15.40;100.00
60373;BME280;46216;52.220;5.134;2022-11-03T11:48:30;100540.00;;;15.49;100.00
60373;BME280;46216;52.220;5.134;2022-11-03T11:50:58;100536.88;;;15.53;100.00
60373;BME280;46216;52.220;5.134;2022-11-03T11:53:25;100538.25;;;15.57;100.00
60373;BME280;46216;52.220;5.134;2022-11-03T11:55:53;100526.81;;;15.55;100.00
60373;BME280;46216;52.220;5.134;2022-11-03T12:00:57;100507.34;;;15.53;100.00
60373;BME280;46216;52.220;5.134;2022-11-03T12:03:30;100501.66;;;15.56;100.00
60373;BME280;46216;52.220;5.134;2022-11-03T12:05:56;100484.94;;;15.63;100.00
60373;BME280;46216;52.220;5.134;2022-11-03T12:08:27;100485.63;;;15.65;100.00
60373;BME280;46216;52.220;5.134;2022-11-03T12:10:56;100483.19;;;15.71;100.00
60373;BME280;46216;52.220;5.134;2022-11-03T12:13:44;100469.63;;;15.73;100.00
60373;BME280;46216;52.220;5.134;2022-11-03T12:18:56;100462.47;;;15.81;100.00
60373;BME280;46216;52.220;5.134;2022-11-03T12:21:47;100456.56;;;15.78;100.00
60373;BME280;46216;52.220;5.134;2022-11-03T12:27:02;100445.19;;;15.84;100.00
60373;BME280;46216;52.220;5.134;2022-11-03T12:29:28;100445.19;;;15.84;100.00
60373;BME280;46216;52.220;5.134;2022-11-03T12:31:54;100440.34;;;15.88;100.00
60373;BME280;46216;52.220;5.134;2022-11-03T12:34:20;100431.59;;;15.85;100.00
60373;BME280;46216;52.220;5.134;2022-11-03T12:36:46;100434.13;;;15.87;100.00
60373;BME280;46216;52.220;5.134;2022-11-03T12:39:11;100415.31;;;15.87;100.00
60373;BME280;46216;52.220;5.134;2022-11-03T12:41:37;100414.31;;;15.88;100.00
60373;BME280;46216;52.220;5.134;2022-11-03T12:44:03;100409.78;;;15.89;100.00
60373;BME280;46216;52.220;5.134;2022-11-03T12:46:28;100404.59;;;15.87;100.00
60373;BME280;46216;52.220;5.134;2022-11-03T12:48:54;100388.47;;;15.87;100.00
60373;BME280;46216;52.220;5.134;2022-11-03T12:51:21;100394.66;;;15.88;100.00
60373;BME280;46216;52.220;5.134;2022-11-03T12:53:47;100388.47;;;15.87;100.00
60373;BME280;46216;52.220;5.134;2022-11-03T12:56:13;100392.50;;;15.91;100.00
60373;BME280;46216;52.220;5.134;2022-11-03T12:58:40;100385.69;;;15.97;100.00
60373;BME280;46216;52.220;5.134;2022-11-03T13:01:07;100374.75;;;15.98;100.00
60373;BME280;46216;52.220;5.134;2022-11-03T13:03:34;100376.50;;;16.07;100.00
60373;BME280;46216;52.220;5.134;2022-11-03T13:06:00;100363.41;;;16.13;100.00
60373;BME280;46216;52.220;5.134;2022-11-03T13:08:28;100368.00;;;16.20;100.00
60373;BME280;46216;52.220;5.134;2022-11-03T13:10:54;100345.31;;;16.23;100.00
60373;BME280;46216;52.220;5.134;2022-11-03T13:13:19;100337.13;;;16.32;100.00
60373;BME280;46216;52.220;5.134;2022-11-03T13:15:44;100340.03;;;16.39;100.00
60373;BME280;46216;52.220;5.134;2022-11-03T13:18:10;100329.47;;;16.46;100.00
60373;BME280;46216;52.220;5.134;2022-11-03T13:20:35;100328.63;;;16.45;100.00
60373;BME280;46216;52.220;5.134;2022-11-03T13:23:02;100326.09;;;16.44;100.00
60373;BME280;46216;52.220;5.134;2022-11-03T13:25:27;100326.09;;;16.44;100.00
60373;BME280;46216;52.220;5.134;2022-11-03T13:27:54;100328.78;;;16.44;100.00
60373;BME280;46216;52.220;5.134;2022-11-03T13:30:20;100318.88;;;16.44;100.00
60373;BME280;46216;52.220;5.134;2022-11-03T13:32:46;100311.66;;;16.45;100.00
60373;BME280;46216;52.220;5.134;2022-11-03T13:35:12;100292.66;;;16.46;100.00
60373;BME280;46216;52.220;5.134;2022-11-03T13:37:37;100300.56;;;16.48;100.00
60373;BME280;46216;52.220;5.134;2022-11-03T13:40:03;100281.75;;;16.48;100.00
60373;BME280;46216;52.220;5.134;2022-11-03T13:42:29;100272.97;;;16.46;100.00
60373;BME280;46216;52.220;5.134;2022-11-03T13:44:54;100265.09;;;16.44;100.00
60373;BME280;46216;52.220;5.134;2022-11-03T13:47:21;100255.81;;;16.39;100.00
60373;BME280;46216;52.220;5.134;2022-11-03T13:49:46;100250.13;;;16.42;100.00